Time;durP1;ratioP1;P1;durP2;ratioP2;P2;SDS_P1;SDS_P2;PMS_P1;PMS_P2;Temp;Humidity;BMP_temperature;BMP_pressure;BME280_temperature;BME280_humidity;BME280_pressure;Samples;Min_cycle;Max_cycle;Signal;HPM_P1;HPM_P2
2022/06/29 00:00:28;;;;;;;7.73;6.27;;;;;;;;;;4945095;29;20184;-85
2022/06/29 00:03:32;;;;;;;7.57;6.03;;;;;;;;;;4953707;28;20191;-85
2022/06/29 00:06:36;;;;;;;7.43;6.00;;;;;;;;;;4946821;29;20195;-85
2022/06/29 00:09:40;;;;;;;5.90;5.40;;;;;;;;;;4941180;28;20646;-85
2022/06/29 00:12:46;;;;;;;7.73;6.30;;;;;;;;;;4950387;28;20222;-84
2022/06/29 00:15:49;;;;;;;7.83;6.50;;;;;;;;;;4934466;29;20183;-85
2022/06/29 00:18:53;;;;;;;6.53;5.93;;;;;;;;;;4951932;28;20665;-85
2022/06/29 00:21:58;;;;;;;7.53;5.70;;;;;;;;;;4942059;28;20218;-85
2022/06/29 00:25:03;;;;;;;6.30;5.70;;;;;;;;;;4923277;29;20179;-85
2022/06/29 00:28:07;;;;;;;8.97;5.80;;;;;;;;;;4923617;29;20184;-85
2022/06/29 00:31:11;;;;;;;7.90;6.00;;;;;;;;;;4933650;29;20183;-85
2022/06/29 00:34:15;;;;;;;7.37;6.50;;;;;;;;;;4933219;29;20203;-85
2022/06/29 00:37:19;;;;;;;7.43;6.83;;;;;;;;;;4944430;29;20199;-85
2022/06/29 00:40:23;;;;;;;8.10;6.60;;;;;;;;;;4944170;29;20202;-84
2022/06/29 00:43:27;;;;;;;6.10;5.50;;;;;;;;;;4929468;28;20206;-84
2022/06/29 00:46:31;;;;;;;10.20;6.73;;;;;;;;;;4941604;28;20187;-84
2022/06/29 00:49:35;;;;;;;7.23;5.50;;;;;;;;;;4962848;28;20182;-84
2022/06/29 00:52:42;;;;;;;8.03;5.87;;;;;;;;;;4939893;28;20222;-84
2022/06/29 00:55:47;;;;;;;7.63;5.63;;;;;;;;;;4933500;29;20662;-84
2022/06/29 00:58:53;;;;;;;7.73;5.93;;;;;;;;;;4935998;28;20210;-84
2022/06/29 01:01:57;;;;;;;7.27;6.57;;;;;;;;;;4940776;28;20685;-84
2022/06/29 01:05:03;;;;;;;7.10;6.03;;;;;;;;;;4922291;29;20179;-84
2022/06/29 01:08:07;;;;;;;8.60;6.00;;;;;;;;;;4922249;28;20191;-84
2022/06/29 01:11:11;;;;;;;10.70;6.30;;;;;;;;;;4922064;29;20188;-85
2022/06/29 01:14:16;;;;;;;7.80;6.57;;;;;;;;;;4932840;29;20210;-84
2022/06/29 01:17:21;;;;;;;9.60;6.97;;;;;;;;;;4950865;28;20195;-84
2022/06/29 01:20:25;;;;;;;8.30;7.47;;;;;;;;;;4922258;29;20179;-85
2022/06/29 01:23:29;;;;;;;7.80;7.10;;;;;;;;;;4928991;28;20195;-85
2022/06/29 01:26:33;;;;;;;7.33;6.63;;;;;;;;;;4952163;28;20186;-85
2022/06/29 01:29:39;;;;;;;10.40;6.03;;;;;;;;;;4953015;28;20178;-85
2022/06/29 01:32:43;;;;;;;11.40;7.23;;;;;;;;;;4933766;28;20234;-85
2022/06/29 01:35:47;;;;;;;9.30;7.27;;;;;;;;;;4964116;28;20192;-85
2022/06/29 01:38:51;;;;;;;8.17;7.30;;;;;;;;;;4952654;28;20222;-85
2022/06/29 01:41:56;;;;;;;8.53;7.23;;;;;;;;;;4951652;28;20234;-85
2022/06/29 01:45:00;;;;;;;7.37;6.57;;;;;;;;;;4923037;28;20179;-84
2022/06/29 01:48:05;;;;;;;8.53;7.63;;;;;;;;;;4940378;28;20195;-84
2022/06/29 01:51:09;;;;;;;11.07;6.90;;;;;;;;;;4951601;28;20187;-85
2022/06/29 01:54:13;;;;;;;9.30;6.90;;;;;;;;;;4949973;28;20209;-84
2022/06/29 01:57:17;;;;;;;8.90;6.53;;;;;;;;;;4935516;28;20192;-84
2022/06/29 02:00:21;;;;;;;13.20;7.40;;;;;;;;;;4943414;28;20183;-84
2022/06/29 02:03:25;;;;;;;11.30;6.97;;;;;;;;;;4930801;28;20233;-84
2022/06/29 02:06:29;;;;;;;7.00;6.17;;;;;;;;;;4944345;28;20206;-84
2022/06/29 02:09:33;;;;;;;9.40;7.30;;;;;;;;;;4940638;28;20175;-85
2022/06/29 02:12:37;;;;;;;8.30;7.37;;;;;;;;;;4953229;28;20222;-84
2022/06/29 02:15:41;;;;;;;8.43;7.20;;;;;;;;;;4968427;28;20654;-84
2022/06/29 02:18:45;;;;;;;7.90;7.10;;;;;;;;;;4953828;28;20222;-84
2022/06/29 02:21:49;;;;;;;10.50;8.17;;;;;;;;;;4955610;28;20214;-84
2022/06/29 02:24:53;;;;;;;8.70;7.83;;;;;;;;;;4960474;28;20186;-84
2022/06/29 02:27:58;;;;;;;9.60;7.50;;;;;;;;;;4962259;28;20187;-84
2022/06/29 02:34:43;;;;;;;8.63;7.77;;;;;;;;;;4950565;28;20271;-84
2022/06/29 02:37:47;;;;;;;10.90;8.37;;;;;;;;;;4961508;28;20191;-84
2022/06/29 02:40:51;;;;;;;12.90;7.80;;;;;;;;;;4961261;28;20186;-84
2022/06/29 02:43:55;;;;;;;9.00;7.50;;;;;;;;;;4957911;28;20199;-84
2022/06/29 02:47:00;;;;;;;12.93;7.30;;;;;;;;;;4949555;29;20662;-85
2022/06/29 02:50:05;;;;;;;9.00;7.20;;;;;;;;;;4938076;29;20206;-85
2022/06/29 02:53:09;;;;;;;9.13;7.70;;;;;;;;;;4937247;29;20223;-85
2022/06/29 02:56:13;;;;;;;8.70;7.80;;;;;;;;;;4925840;28;20184;-84
2022/06/29 02:59:18;;;;;;;14.60;7.23;;;;;;;;;;4925986;28;20215;-85
2022/06/29 03:02:22;;;;;;;9.47;7.07;;;;;;;;;;4924936;29;20223;-85
2022/06/29 03:05:27;;;;;;;9.73;7.33;;;;;;;;;;4938156;28;20202;-85
2022/06/29 03:08:31;;;;;;;12.57;8.00;;;;;;;;;;4941461;28;20622;-85
2022/06/29 03:11:35;;;;;;;14.67;7.97;;;;;;;;;;4932600;28;20237;-85
2022/06/29 03:14:39;;;;;;;12.93;7.27;;;;;;;;;;4946405;28;20207;-84
2022/06/29 03:17:43;;;;;;;12.77;7.93;;;;;;;;;;4958478;29;20187;-85
2022/06/29 03:20:48;;;;;;;9.03;7.67;;;;;;;;;;4935554;28;20195;-85
2022/06/29 03:23:52;;;;;;;10.80;7.57;;;;;;;;;;4936576;28;20195;-85
2022/06/29 03:26:56;;;;;;;10.50;7.70;;;;;;;;;;4924245;29;20210;-85
2022/06/29 03:30:01;;;;;;;11.13;8.20;;;;;;;;;;4924534;29;20199;-85
2022/06/29 03:33:05;;;;;;;9.10;7.87;;;;;;;;;;4936046;28;20230;-85
2022/06/29 03:36:09;;;;;;;17.40;8.60;;;;;;;;;;4935033;28;20203;-85
2022/06/29 03:39:13;;;;;;;10.43;8.20;;;;;;;;;;4934475;29;20222;-85
2022/06/29 03:42:17;;;;;;;10.97;8.17;;;;;;;;;;4923733;29;20263;-85
2022/06/29 03:45:22;;;;;;;11.07;7.27;;;;;;;;;;4934535;29;20255;-85
2022/06/29 03:48:27;;;;;;;9.73;7.43;;;;;;;;;;4945715;28;20203;-85
2022/06/29 03:51:30;;;;;;;9.27;7.73;;;;;;;;;;4923744;29;20215;-85
2022/06/29 03:54:34;;;;;;;8.67;7.77;;;;;;;;;;4935693;28;20199;-85
2022/06/29 03:57:39;;;;;;;8.57;7.57;;;;;;;;;;4951893;28;20194;-85
2022/06/29 04:00:43;;;;;;;9.77;7.57;;;;;;;;;;4940736;28;20195;-85
2022/06/29 04:03:47;;;;;;;11.43;7.73;;;;;;;;;;4936080;28;20191;-85
2022/06/29 04:06:51;;;;;;;10.70;7.40;;;;;;;;;;4934054;29;20211;-85
2022/06/29 04:09:59;;;;;;;15.63;7.23;;;;;;;;;;4934223;29;20208;-87
2022/06/29 04:13:03;;;;;;;10.93;7.13;;;;;;;;;;4923133;29;20231;-89
2022/06/29 04:16:07;;;;;;;13.23;7.43;;;;;;;;;;4923191;29;20186;-89
2022/06/29 04:19:12;;;;;;;12.17;7.83;;;;;;;;;;4923354;29;20557;-89
2022/06/29 04:22:17;;;;;;;11.47;7.73;;;;;;;;;;4934379;29;20238;-88
2022/06/29 04:25:21;;;;;;;7.37;6.57;;;;;;;;;;4933834;29;20195;-89
2022/06/29 04:28:26;;;;;;;9.77;7.87;;;;;;;;;;4923416;29;20528;-88
2022/06/29 04:31:30;;;;;;;14.20;8.60;;;;;;;;;;4923017;29;20555;-88
2022/06/29 04:34:34;;;;;;;12.90;8.73;;;;;;;;;;4949071;28;20198;-88
2022/06/29 04:37:38;;;;;;;18.33;8.73;;;;;;;;;;4940353;29;20210;-88
2022/06/29 04:40:42;;;;;;;11.23;8.00;;;;;;;;;;4923119;29;20222;-88
2022/06/29 04:43:47;;;;;;;15.33;9.07;;;;;;;;;;4961512;23;20251;-86
2022/06/29 04:46:51;;;;;;;12.30;8.30;;;;;;;;;;4933323;29;20562;-86
2022/06/29 04:49:55;;;;;;;11.73;8.57;;;;;;;;;;4933932;29;20179;-89
2022/06/29 04:52:59;;;;;;;12.10;9.40;;;;;;;;;;4933517;29;20226;-88
2022/06/29 04:56:03;;;;;;;10.17;7.97;;;;;;;;;;4923183;29;20187;-84
2022/06/29 04:59:07;;;;;;;11.70;9.47;;;;;;;;;;4933268;29;20218;-86
2022/06/29 05:02:11;;;;;;;13.23;8.77;;;;;;;;;;4933940;29;20223;-90
2022/06/29 05:05:16;;;;;;;12.97;8.70;;;;;;;;;;4914347;29;20208;-89
2022/06/29 05:08:20;;;;;;;12.33;8.30;;;;;;;;;;4917234;29;20192;-89
2022/06/29 05:11:25;;;;;;;12.60;8.90;;;;;;;;;;4915068;29;20196;-89
2022/06/29 05:14:29;;;;;;;14.07;10.57;;;;;;;;;;4904596;29;20205;-89
2022/06/29 05:17:36;;;;;;;18.33;11.80;;;;;;;;;;4903604;29;20187;-88
2022/06/29 05:20:42;;;;;;;14.97;10.10;;;;;;;;;;4925524;29;20223;-89
2022/06/29 05:23:47;;;;;;;13.73;9.83;;;;;;;;;;4937547;29;20590;-90
2022/06/29 05:26:52;;;;;;;16.13;11.93;;;;;;;;;;4940802;28;20202;-90
2022/06/29 05:29:56;;;;;;;12.53;9.13;;;;;;;;;;4914176;29;20559;-87
2022/06/29 05:33:00;;;;;;;15.80;10.97;;;;;;;;;;4907674;29;20215;-88
2022/06/29 05:36:08;;;;;;;11.53;8.53;;;;;;;;;;4937725;29;20195;-88
2022/06/29 05:39:13;;;;;;;16.00;11.07;;;;;;;;;;4917439;29;20231;-88
2022/06/29 05:42:17;;;;;;;11.13;8.20;;;;;;;;;;4926094;29;20234;-89
2022/06/29 05:45:21;;;;;;;11.03;8.33;;;;;;;;;;4946169;29;20187;-88
2022/06/29 05:48:27;;;;;;;11.60;10.40;;;;;;;;;;4909162;29;20234;-88
2022/06/29 05:51:31;;;;;;;10.93;9.20;;;;;;;;;;4906751;29;20563;-88
2022/06/29 05:54:35;;;;;;;14.10;10.23;;;;;;;;;;4917484;29;20191;-88
2022/06/29 05:57:39;;;;;;;12.73;9.97;;;;;;;;;;4928201;29;20203;-88
2022/06/29 06:00:43;;;;;;;13.93;10.57;;;;;;;;;;4908915;29;20216;-87
2022/06/29 06:03:48;;;;;;;14.47;10.03;;;;;;;;;;4934044;29;20607;-88
2022/06/29 06:06:52;;;;;;;12.87;10.50;;;;;;;;;;4934531;29;20203;-88
2022/06/29 06:09:57;;;;;;;15.03;11.67;;;;;;;;;;4942641;29;20187;-84
2022/06/29 06:13:02;;;;;;;15.17;12.00;;;;;;;;;;4930403;29;20223;-84
2022/06/29 06:16:06;;;;;;;15.67;12.00;;;;;;;;;;4932962;29;20200;-84
2022/06/29 06:19:11;;;;;;;16.10;12.37;;;;;;;;;;4919771;29;20195;-84
2022/06/29 06:22:15;;;;;;;17.53;12.23;;;;;;;;;;4922281;29;20230;-84
2022/06/29 06:25:19;;;;;;;17.30;12.33;;;;;;;;;;4907976;29;20666;-82
2022/06/29 06:28:23;;;;;;;16.50;11.73;;;;;;;;;;4906194;29;20686;-82
2022/06/29 06:31:28;;;;;;;16.10;11.90;;;;;;;;;;4927926;29;20207;-82
2022/06/29 06:34:32;;;;;;;10.83;9.73;;;;;;;;;;4934002;29;20206;-82
2022/06/29 06:37:36;;;;;;;13.57;10.17;;;;;;;;;;4906612;29;20195;-82
2022/06/29 06:44:03;;;;;;;11.73;10.00;;;;;;;;;;4941347;29;20242;-83
2022/06/29 06:47:07;;;;;;;10.03;8.93;;;;;;;;;;4921082;29;20209;-83
2022/06/29 06:50:11;;;;;;;12.43;10.10;;;;;;;;;;4906050;29;20196;-83
2022/06/29 06:53:15;;;;;;;11.07;9.03;;;;;;;;;;4927172;29;20726;-82
2022/06/29 06:56:20;;;;;;;9.00;7.80;;;;;;;;;;4914602;29;20204;-82
2022/06/29 06:59:24;;;;;;;10.40;9.40;;;;;;;;;;4927686;29;20184;-83
2022/06/29 07:02:28;;;;;;;9.67;7.60;;;;;;;;;;4905753;29;20231;-82
2022/06/29 07:05:32;;;;;;;11.47;7.80;;;;;;;;;;4927280;29;20207;-83
2022/06/29 07:08:38;;;;;;;9.50;7.30;;;;;;;;;;4931071;29;20191;-83
2022/06/29 07:11:43;;;;;;;10.07;6.93;;;;;;;;;;4905714;29;20188;-82
2022/06/29 07:14:47;;;;;;;10.10;7.37;;;;;;;;;;4938398;29;20670;-83
2022/06/29 07:17:52;;;;;;;9.80;8.13;;;;;;;;;;4932542;29;20560;-82
2022/06/29 07:20:56;;;;;;;9.17;7.60;;;;;;;;;;4916686;29;20212;-83
2022/06/29 07:24:01;;;;;;;9.23;6.80;;;;;;;;;;4906244;29;20215;-83
2022/06/29 07:27:05;;;;;;;7.17;5.63;;;;;;;;;;4917349;29;20201;-83
2022/06/29 07:30:10;;;;;;;9.70;7.20;;;;;;;;;;4926922;29;20176;-83
2022/06/29 07:33:14;;;;;;;7.57;6.47;;;;;;;;;;4932507;29;20215;-82
2022/06/29 07:36:18;;;;;;;7.40;5.73;;;;;;;;;;4941411;29;20196;-82
2022/06/29 07:39:22;;;;;;;7.20;6.50;;;;;;;;;;4934169;29;20195;-83
2022/06/29 07:42:26;;;;;;;6.93;6.00;;;;;;;;;;4937832;29;20227;-83
2022/06/29 07:45:31;;;;;;;11.57;8.00;;;;;;;;;;4942971;29;20184;-83
2022/06/29 07:48:35;;;;;;;12.83;8.07;;;;;;;;;;4933466;29;20192;-83
2022/06/29 07:51:39;;;;;;;9.17;8.23;;;;;;;;;;4915883;29;20189;-82
2022/06/29 07:54:43;;;;;;;10.57;8.23;;;;;;;;;;4915719;29;20180;-82
2022/06/29 07:57:47;;;;;;;10.33;7.90;;;;;;;;;;4915596;29;20231;-83
2022/06/29 08:00:52;;;;;;;9.90;8.77;;;;;;;;;;4928093;29;20229;-82
2022/06/29 08:03:56;;;;;;;9.20;7.60;;;;;;;;;;4918214;29;20224;-82
2022/06/29 08:07:00;;;;;;;8.03;6.97;;;;;;;;;;4915537;29;20548;-83
2022/06/29 08:10:07;;;;;;;8.83;6.57;;;;;;;;;;4916013;29;20180;-83
2022/06/29 08:13:11;;;;;;;9.87;6.50;;;;;;;;;;4926201;29;20560;-82
2022/06/29 08:16:15;;;;;;;9.00;7.70;;;;;;;;;;4915473;29;20200;-83
2022/06/29 08:19:19;;;;;;;10.13;7.00;;;;;;;;;;4943780;29;20199;-83
2022/06/29 08:22:24;;;;;;;9.50;7.07;;;;;;;;;;4923586;29;20736;-83
2022/06/29 08:25:28;;;;;;;9.07;6.63;;;;;;;;;;4919224;29;20192;-84
2022/06/29 08:28:32;;;;;;;7.83;7.03;;;;;;;;;;4905282;29;20184;-82
2022/06/29 08:31:36;;;;;;;8.33;6.73;;;;;;;;;;4934204;29;20184;-82
2022/06/29 08:34:40;;;;;;;9.43;6.40;;;;;;;;;;4941048;29;20654;-82
2022/06/29 08:37:46;;;;;;;8.00;6.83;;;;;;;;;;4924940;29;20191;-82
2022/06/29 08:40:52;;;;;;;8.93;5.93;;;;;;;;;;4913959;29;20568;-82
2022/06/29 08:43:59;;;;;;;5.80;5.20;;;;;;;;;;4942381;29;20219;-82
2022/06/29 08:47:05;;;;;;;9.07;7.13;;;;;;;;;;4911827;29;20191;-83
2022/06/29 08:50:11;;;;;;;9.50;7.80;;;;;;;;;;4926186;29;20200;-82
2022/06/29 08:53:15;;;;;;;7.43;5.80;;;;;;;;;;4926036;29;20556;-83
2022/06/29 08:56:19;;;;;;;9.07;7.00;;;;;;;;;;4925739;29;20180;-82
2022/06/29 08:59:24;;;;;;;10.73;6.63;;;;;;;;;;4921026;29;20199;-82
2022/06/29 09:02:28;;;;;;;10.00;6.27;;;;;;;;;;4910714;29;20227;-82
2022/06/29 09:05:33;;;;;;;7.00;5.97;;;;;;;;;;4928967;29;20559;-82
2022/06/29 09:08:37;;;;;;;7.63;6.27;;;;;;;;;;4922269;29;20207;-82
2022/06/29 09:11:42;;;;;;;12.60;6.87;;;;;;;;;;4933338;29;20196;-82
2022/06/29 09:14:47;;;;;;;10.60;5.87;;;;;;;;;;4917436;29;20720;-81
2022/06/29 09:17:51;;;;;;;8.87;6.57;;;;;;;;;;4960614;29;20264;-83
2022/06/29 09:21:00;;;;;;;7.03;5.80;;;;;;;;;;4960114;29;20220;-83
2022/06/29 09:24:14;;;;;;;7.27;5.47;;;;;;;;;;4941947;29;20227;-84
2022/06/29 09:27:19;;;;;;;9.37;6.00;;;;;;;;;;4934061;29;20203;-83
2022/06/29 09:30:29;;;;;;;7.77;5.50;;;;;;;;;;4948938;29;20198;-84
2022/06/29 09:33:34;;;;;;;7.53;5.27;;;;;;;;;;4928669;29;20226;-84
2022/06/29 09:36:53;;;;;;;7.03;4.87;;;;;;;;;;4933413;29;20182;-84
2022/06/29 09:39:59;;;;;;;10.97;5.30;;;;;;;;;;4922023;29;20231;-84
2022/06/29 09:43:03;;;;;;;6.83;4.77;;;;;;;;;;4948653;29;20234;-84
2022/06/29 09:46:11;;;;;;;6.00;4.70;;;;;;;;;;4949834;29;20187;-84
2022/06/29 09:49:17;;;;;;;6.00;4.67;;;;;;;;;;4936135;29;20203;-84
2022/06/29 09:52:22;;;;;;;7.90;4.93;;;;;;;;;;4942004;29;20222;-83
2022/06/29 09:55:26;;;;;;;9.70;4.87;;;;;;;;;;4925395;29;20191;-84
2022/06/29 09:58:47;;;;;;;8.63;5.03;;;;;;;;;;4945929;29;20179;-83
2022/06/29 10:05:21;;;;;;;13.13;5.70;;;;;;;;;;4927875;29;20188;-83
2022/06/29 10:08:26;;;;;;;12.20;6.23;;;;;;;;;;4918408;29;20658;-83
2022/06/29 10:15:26;;;;;;;4.57;3.97;;;;;;;;;;4928514;29;20210;-83
2022/06/29 10:18:45;;;;;;;6.73;4.30;;;;;;;;;;4917450;29;20197;-85
2022/06/29 10:21:49;;;;;;;6.88;3.85;;;;;;;;;;4926951;29;20212;-83
2022/06/29 10:25:00;;;;;;;6.53;3.72;;;;;;;;;;4929701;29;20181;-83
2022/06/29 10:28:20;;;;;;;4.90;3.90;;;;;;;;;;4930456;29;20192;-84
2022/06/29 10:31:46;;;;;;;6.13;3.70;;;;;;;;;;4919335;29;20194;-84
2022/06/29 10:35:07;;;;;;;4.70;3.67;;;;;;;;;;4940929;29;20190;-83
2022/06/29 10:38:11;;;;;;;4.70;3.58;;;;;;;;;;4924731;29;20190;-83
2022/06/29 10:45:03;;;;;;;5.57;3.42;;;;;;;;;;4999141;23;20235;-78
2022/06/29 10:48:07;;;;;;;5.57;3.15;;;;;;;;;;4974489;28;20188;-78
2022/06/29 10:51:12;;;;;;;4.45;3.72;;;;;;;;;;4944309;29;20218;-79
2022/06/29 10:54:26;;;;;;;8.30;3.63;;;;;;;;;;4941369;29;20206;-79
2022/06/29 10:57:33;;;;;;;6.57;3.80;;;;;;;;;;4927461;29;20183;-78
2022/06/29 11:00:39;;;;;;;6.95;3.75;;;;;;;;;;4938180;29;20221;-78
2022/06/29 11:03:42;;;;;;;4.60;3.58;;;;;;;;;;4938548;29;20187;-80
2022/06/29 11:13:49;;;;;;;6.47;3.50;;;;;;;;;;4958359;29;20196;-78
2022/06/29 11:16:55;;;;;;;3.65;3.33;;;;;;;;;;4946227;29;20197;-78
2022/06/29 11:20:00;;;;;;;5.68;3.53;;;;;;;;;;4947166;29;20194;-78
2022/06/29 11:23:13;;;;;;;5.45;3.55;;;;;;;;;;4934498;29;20188;-78
2022/06/29 11:26:16;;;;;;;4.13;3.20;;;;;;;;;;4958373;29;20202;-78
2022/06/29 11:29:22;;;;;;;5.45;3.80;;;;;;;;;;4933904;29;20196;-79
2022/06/29 11:32:56;;;;;;;7.47;3.70;;;;;;;;;;4896797;29;20222;-78
2022/06/29 11:36:08;;;;;;;4.45;3.90;;;;;;;;;;4918119;29;20191;-77
2022/06/29 11:39:15;;;;;;;6.90;3.50;;;;;;;;;;4957614;29;20186;-78
2022/06/29 11:45:56;;;;;;;5.28;2.92;;;;;;;;;;4956089;29;20202;-78
2022/06/29 11:52:33;;;;;;;7.88;3.00;;;;;;;;;;4949264;29;20566;-79
2022/06/29 11:55:43;;;;;;;3.38;3.05;;;;;;;;;;4957523;29;20202;-78
2022/06/29 11:58:51;;;;;;;3.80;2.92;;;;;;;;;;4943682;29;20196;-78
2022/06/29 12:01:59;;;;;;;4.25;3.05;;;;;;;;;;4955800;29;20568;-76
2022/06/29 12:05:03;;;;;;;4.90;3.30;;;;;;;;;;4944096;29;20200;-76
2022/06/29 12:08:07;;;;;;;7.28;3.10;;;;;;;;;;4956554;29;20199;-78
2022/06/29 12:11:12;;;;;;;6.93;3.17;;;;;;;;;;4942405;29;20227;-76
2022/06/29 12:14:16;;;;;;;4.38;2.90;;;;;;;;;;4942923;29;20199;-76
2022/06/29 12:17:20;;;;;;;6.57;2.92;;;;;;;;;;4941523;29;20191;-76
2022/06/29 12:20:24;;;;;;;4.10;2.78;;;;;;;;;;4955085;29;20203;-76
2022/06/29 12:23:28;;;;;;;4.13;2.63;;;;;;;;;;4924979;29;20522;-76
2022/06/29 12:26:32;;;;;;;4.72;3.38;;;;;;;;;;4944233;29;20203;-76
2022/06/29 12:29:37;;;;;;;5.30;2.95;;;;;;;;;;4930888;29;20192;-75
2022/06/29 12:32:41;;;;;;;4.40;3.00;;;;;;;;;;4941691;29;20180;-76
2022/06/29 12:35:46;;;;;;;3.33;2.83;;;;;;;;;;4944058;29;20184;-76
2022/06/29 12:38:50;;;;;;;8.27;3.50;;;;;;;;;;4955831;29;20627;-76
2022/06/29 12:41:54;;;;;;;4.22;2.97;;;;;;;;;;4943723;29;20565;-76
2022/06/29 12:44:58;;;;;;;8.15;3.78;;;;;;;;;;4954798;28;20556;-76
2022/06/29 12:48:03;;;;;;;4.35;3.28;;;;;;;;;;4955711;29;20531;-76
2022/06/29 12:51:09;;;;;;;4.93;3.42;;;;;;;;;;4905480;29;20220;-76
2022/06/29 12:54:13;;;;;;;5.55;3.33;;;;;;;;;;4948778;29;20187;-76
2022/06/29 12:57:18;;;;;;;3.75;3.00;;;;;;;;;;4955351;29;20195;-76
2022/06/29 13:00:23;;;;;;;5.72;3.53;;;;;;;;;;4942100;29;20187;-76
2022/06/29 13:03:27;;;;;;;3.63;3.10;;;;;;;;;;4932182;29;20184;-75
2022/06/29 13:06:31;;;;;;;3.20;2.83;;;;;;;;;;4954792;29;20552;-75
2022/06/29 13:09:35;;;;;;;6.20;3.45;;;;;;;;;;4943204;29;20549;-76
2022/06/29 13:12:40;;;;;;;5.60;3.45;;;;;;;;;;4932144;29;20538;-76
2022/06/29 13:15:43;;;;;;;6.75;3.58;;;;;;;;;;4955263;29;20179;-76
2022/06/29 13:18:47;;;;;;;5.18;3.00;;;;;;;;;;4943090;29;20539;-76
2022/06/29 13:21:52;;;;;;;8.07;3.30;;;;;;;;;;4954432;29;20223;-77
2022/06/29 13:24:56;;;;;;;6.60;3.38;;;;;;;;;;4936430;29;20191;-76
2022/06/29 13:28:00;;;;;;;4.40;3.80;;;;;;;;;;4929744;29;20203;-76
2022/06/29 13:31:04;;;;;;;6.60;3.38;;;;;;;;;;4954539;29;20395;-75
2022/06/29 13:34:09;;;;;;;8.13;3.20;;;;;;;;;;4942262;29;20196;-76
2022/06/29 13:37:13;;;;;;;5.72;2.90;;;;;;;;;;4924672;29;20200;-75
2022/06/29 13:40:17;;;;;;;4.20;2.63;;;;;;;;;;4942826;29;20191;-75
2022/06/29 13:43:21;;;;;;;5.63;2.83;;;;;;;;;;4905688;29;20228;-75
2022/06/29 13:46:25;;;;;;;4.18;2.80;;;;;;;;;;4916664;29;20193;-76
2022/06/29 13:49:29;;;;;;;5.45;2.80;;;;;;;;;;4949761;29;20184;-75
2022/06/29 13:52:33;;;;;;;7.32;2.63;;;;;;;;;;4942327;29;20224;-75
2022/06/29 13:55:38;;;;;;;4.22;2.63;;;;;;;;;;4942890;29;20195;-75
2022/06/29 13:58:42;;;;;;;3.67;2.95;;;;;;;;;;4946588;29;20647;-75
2022/06/29 14:01:46;;;;;;;6.75;3.03;;;;;;;;;;4957513;29;20223;-76
2022/06/29 14:04:50;;;;;;;3.25;2.90;;;;;;;;;;4958182;29;20192;-75
2022/06/29 14:07:54;;;;;;;3.53;2.72;;;;;;;;;;4946536;29;20539;-75
2022/06/29 14:10:59;;;;;;;3.70;2.75;;;;;;;;;;4957887;29;20223;-76
2022/06/29 14:14:04;;;;;;;5.07;3.45;;;;;;;;;;4957925;29;20187;-75
2022/06/29 14:17:08;;;;;;;6.72;3.45;;;;;;;;;;4957365;29;20522;-75
2022/06/29 14:20:12;;;;;;;4.72;3.40;;;;;;;;;;4958038;29;20188;-76
2022/06/29 14:23:17;;;;;;;7.13;3.05;;;;;;;;;;4945986;29;20215;-76
2022/06/29 14:26:22;;;;;;;5.03;2.65;;;;;;;;;;4946353;29;20192;-75
2022/06/29 14:29:26;;;;;;;7.13;3.00;;;;;;;;;;4946141;29;20180;-75
2022/06/29 14:32:31;;;;;;;4.97;2.88;;;;;;;;;;4919689;29;20225;-75
2022/06/29 14:35:35;;;;;;;4.45;3.05;;;;;;;;;;4943075;29;20643;-75
2022/06/29 14:38:39;;;;;;;6.13;3.08;;;;;;;;;;4954883;29;20554;-75
2022/06/29 14:41:44;;;;;;;2.92;2.60;;;;;;;;;;4945873;29;20223;-75
2022/06/29 14:44:48;;;;;;;4.10;2.50;;;;;;;;;;4941626;29;20215;-75
2022/06/29 14:47:52;;;;;;;3.25;2.20;;;;;;;;;;4957854;29;20183;-75
2022/06/29 14:50:56;;;;;;;5.03;2.30;;;;;;;;;;4945560;29;20223;-75
2022/06/29 14:54:01;;;;;;;4.78;2.30;;;;;;;;;;4944367;29;20184;-75
2022/06/29 14:57:05;;;;;;;5.45;2.17;;;;;;;;;;4953064;29;20552;-75
2022/06/29 15:00:11;;;;;;;4.85;2.10;;;;;;;;;;4956550;29;20717;-75
2022/06/29 15:03:16;;;;;;;4.32;2.38;;;;;;;;;;4945373;29;20208;-76
2022/06/29 15:06:21;;;;;;;3.38;2.20;;;;;;;;;;4907443;29;20190;-76
2022/06/29 15:09:25;;;;;;;3.65;2.15;;;;;;;;;;4943696;29;20196;-76
2022/06/29 15:12:30;;;;;;;3.33;1.90;;;;;;;;;;4945210;29;20212;-75
2022/06/29 15:15:34;;;;;;;7.53;2.40;;;;;;;;;;4945177;29;20192;-75
2022/06/29 15:18:40;;;;;;;4.70;2.20;;;;;;;;;;4945093;29;20196;-76
2022/06/29 15:21:44;;;;;;;4.03;2.40;;;;;;;;;;4956553;29;20219;-75
2022/06/29 15:24:48;;;;;;;4.72;2.78;;;;;;;;;;4957097;29;20203;-76
2022/06/29 15:27:52;;;;;;;4.28;2.60;;;;;;;;;;4945264;29;20204;-76
2022/06/29 15:30:57;;;;;;;5.95;2.38;;;;;;;;;;4933666;29;20211;-76
2022/06/29 15:40:47;;;;;;;3.42;2.05;;;;;;;;;;4956013;29;20706;-75
2022/06/29 15:43:51;;;;;;;3.60;2.13;;;;;;;;;;4956303;28;20219;-76
2022/06/29 15:46:56;;;;;;;3.65;2.50;;;;;;;;;;4944630;29;20208;-76
2022/06/29 15:50:00;;;;;;;3.55;2.40;;;;;;;;;;4956119;29;20192;-74
2022/06/29 15:56:26;;;;;;;3.25;2.60;;;;;;;;;;4918162;29;20189;-75
2022/06/29 15:59:30;;;;;;;2.90;2.30;;;;;;;;;;4925247;29;20196;-75
2022/06/29 16:02:34;;;;;;;6.10;2.80;;;;;;;;;;4941363;29;20231;-76
2022/06/29 16:05:39;;;;;;;4.63;2.53;;;;;;;;;;4944355;29;20203;-78
2022/06/29 16:08:43;;;;;;;4.05;2.10;;;;;;;;;;4959250;29;20646;-76
2022/06/29 16:15:10;;;;;;;3.50;2.45;;;;;;;;;;4948529;29;20543;-78
2022/06/29 16:18:14;;;;;;;4.70;2.63;;;;;;;;;;4941044;29;20526;-78
2022/06/29 16:21:18;;;;;;;7.18;3.08;;;;;;;;;;4913473;29;20223;-78
2022/06/29 16:24:22;;;;;;;5.65;2.50;;;;;;;;;;4918103;29;20215;-78
2022/06/29 16:27:27;;;;;;;3.30;2.50;;;;;;;;;;4907962;29;20195;-78
2022/06/29 16:30:32;;;;;;;4.35;2.50;;;;;;;;;;4918451;29;20207;-77
2022/06/29 16:33:36;;;;;;;4.85;3.10;;;;;;;;;;4914224;29;20202;-77
2022/06/29 16:36:40;;;;;;;6.18;3.38;;;;;;;;;;4914215;29;20529;-76
2022/06/29 16:39:44;;;;;;;4.22;3.25;;;;;;;;;;4936679;29;20193;-76
2022/06/29 16:42:48;;;;;;;6.93;3.70;;;;;;;;;;4936164;29;20679;-76
2022/06/29 16:45:52;;;;;;;6.65;3.78;;;;;;;;;;4977358;23;20234;-86
2022/06/29 16:48:56;;;;;;;6.93;4.22;;;;;;;;;;4970826;28;20191;-86
2022/06/29 16:52:01;;;;;;;6.45;4.03;;;;;;;;;;4960359;28;20200;-85
2022/06/29 16:55:05;;;;;;;7.75;3.75;;;;;;;;;;4962871;28;20207;-86
2022/06/29 16:58:13;;;;;;;6.20;4.07;;;;;;;;;;4952547;28;20190;-85
2022/06/29 17:01:17;;;;;;;6.53;4.50;;;;;;;;;;4952599;28;20184;-85
2022/06/29 17:04:21;;;;;;;6.60;4.07;;;;;;;;;;4974465;28;20211;-86
2022/06/29 17:07:25;;;;;;;6.00;4.10;;;;;;;;;;4941249;28;20189;-85
2022/06/29 17:10:31;;;;;;;6.70;4.57;;;;;;;;;;4962029;28;20193;-85
2022/06/29 17:13:35;;;;;;;6.10;4.10;;;;;;;;;;4960812;28;20181;-85
2022/06/29 17:16:39;;;;;;;4.38;3.97;;;;;;;;;;4960319;28;20209;-85
2022/06/29 17:19:43;;;;;;;4.93;3.80;;;;;;;;;;4960681;28;20181;-85
2022/06/29 17:22:48;;;;;;;4.60;3.93;;;;;;;;;;4971565;28;20207;-85
2022/06/29 17:25:52;;;;;;;9.60;4.07;;;;;;;;;;4960341;28;20220;-85
2022/06/29 17:28:57;;;;;;;5.53;4.30;;;;;;;;;;4960513;28;20175;-85
2022/06/29 17:32:01;;;;;;;6.23;4.30;;;;;;;;;;4961817;28;20180;-85
2022/06/29 17:35:06;;;;;;;6.03;4.40;;;;;;;;;;4964102;28;20210;-85
2022/06/29 17:38:10;;;;;;;5.80;4.37;;;;;;;;;;4974798;28;20187;-85
2022/06/29 17:41:14;;;;;;;7.40;4.50;;;;;;;;;;4974563;28;20187;-85
2022/06/29 17:44:18;;;;;;;8.90;4.37;;;;;;;;;;4985920;28;20214;-85
2022/06/29 17:47:23;;;;;;;5.60;4.20;;;;;;;;;;4979126;28;20195;-85
2022/06/29 17:50:27;;;;;;;5.30;4.70;;;;;;;;;;4955766;28;20185;-85
2022/06/29 17:53:31;;;;;;;5.60;4.07;;;;;;;;;;4944869;28;20183;-86
2022/06/29 17:56:35;;;;;;;4.83;4.30;;;;;;;;;;4944535;28;20216;-88
2022/06/29 17:59:39;;;;;;;6.17;4.30;;;;;;;;;;4961000;28;20197;-86
2022/06/29 18:02:44;;;;;;;4.63;4.10;;;;;;;;;;4986178;28;20178;-85
2022/06/29 18:05:48;;;;;;;7.17;4.13;;;;;;;;;;4974377;28;20567;-85
2022/06/29 18:08:52;;;;;;;6.87;4.60;;;;;;;;;;4957218;28;20196;-86
2022/06/29 18:11:57;;;;;;;8.07;4.73;;;;;;;;;;4973855;28;20198;-85
2022/06/29 18:15:01;;;;;;;6.10;4.57;;;;;;;;;;4966257;28;20198;-85
2022/06/29 18:18:05;;;;;;;6.30;5.03;;;;;;;;;;4944661;28;20236;-85
2022/06/29 18:21:09;;;;;;;8.13;4.80;;;;;;;;;;4954968;28;20204;-85
2022/06/29 18:24:13;;;;;;;8.10;4.90;;;;;;;;;;4967856;28;20212;-85
2022/06/29 18:27:17;;;;;;;7.27;5.03;;;;;;;;;;4984981;28;20190;-85
2022/06/29 18:30:22;;;;;;;5.97;5.00;;;;;;;;;;4963754;28;20181;-85
2022/06/29 18:33:25;;;;;;;5.00;4.17;;;;;;;;;;4963142;28;20180;-85
2022/06/29 18:36:30;;;;;;;7.13;4.83;;;;;;;;;;4968541;28;20225;-85
2022/06/29 18:39:34;;;;;;;6.80;5.13;;;;;;;;;;4968982;28;20190;-85
2022/06/29 18:42:38;;;;;;;7.43;5.13;;;;;;;;;;4953957;28;20196;-86
2022/06/29 18:45:44;;;;;;;6.70;4.80;;;;;;;;;;4958332;28;20220;-85
2022/06/29 18:48:49;;;;;;;8.40;4.63;;;;;;;;;;4987727;28;20191;-86
2022/06/29 18:51:53;;;;;;;6.20;4.90;;;;;;;;;;4961997;28;20191;-86
2022/06/29 18:54:57;;;;;;;7.13;5.40;;;;;;;;;;4957440;28;20195;-86
2022/06/29 18:58:02;;;;;;;7.47;5.13;;;;;;;;;;4957620;28;20194;-86
2022/06/29 19:01:06;;;;;;;7.93;5.27;;;;;;;;;;4958726;28;20192;-85
2022/06/29 19:04:10;;;;;;;6.60;5.27;;;;;;;;;;4955149;28;20207;-85
2022/06/29 19:07:14;;;;;;;5.43;4.70;;;;;;;;;;4957008;28;20190;-87